sensor_id;sensor_type;location;lat;lon;timestamp;P1;durP1;ratioP1;P2;durP2;ratioP2
79616;SDS011;69097;52.132;5.422;2023-12-29T00:03:35;6.82;;;1.98;;
79616;SDS011;69097;52.132;5.422;2023-12-29T00:06:16;8.93;;;2.13;;
79616;SDS011;69097;52.132;5.422;2023-12-29T00:08:43;6.05;;;1.10;;
79616;SDS011;69097;52.132;5.422;2023-12-29T00:11:19;5.68;;;2.45;;
79616;SDS011;69097;52.132;5.422;2023-12-29T00:13:47;9.65;;;2.50;;
79616;SDS011;69097;52.132;5.422;2023-12-29T00:16:19;7.68;;;2.22;;
79616;SDS011;69097;52.132;5.422;2023-12-29T00:18:49;10.73;;;2.55;;
79616;SDS011;69097;52.132;5.422;2023-12-29T00:21:18;10.93;;;2.38;;
79616;SDS011;69097;52.132;5.422;2023-12-29T00:23:50;6.32;;;1.85;;
79616;SDS011;69097;52.132;5.422;2023-12-29T00:26:17;8.35;;;1.95;;
79616;SDS011;69097;52.132;5.422;2023-12-29T00:28:43;10.32;;;2.85;;
79616;SDS011;69097;52.132;5.422;2023-12-29T00:31:16;11.18;;;2.50;;
79616;SDS011;69097;52.132;5.422;2023-12-29T00:33:43;9.25;;;2.17;;
79616;SDS011;69097;52.132;5.422;2023-12-29T00:36:17;13.18;;;3.08;;
79616;SDS011;69097;52.132;5.422;2023-12-29T00:38:44;8.15;;;1.90;;
79616;SDS011;69097;52.132;5.422;2023-12-29T00:41:11;10.18;;;2.40;;
79616;SDS011;69097;52.132;5.422;2023-12-29T00:43:38;7.05;;;1.30;;
79616;SDS011;69097;52.132;5.422;2023-12-29T00:46:05;11.63;;;2.13;;
79616;SDS011;69097;52.132;5.422;2023-12-29T00:48:40;7.82;;;2.25;;
79616;SDS011;69097;52.132;5.422;2023-12-29T00:51:13;8.27;;;2.05;;
79616;SDS011;69097;52.132;5.422;2023-12-29T00:53:40;10.27;;;2.90;;
79616;SDS011;69097;52.132;5.422;2023-12-29T00:56:10;10.15;;;2.40;;
79616;SDS011;69097;52.132;5.422;2023-12-29T00:58:37;8.80;;;1.70;;
79616;SDS011;69097;52.132;5.422;2023-12-29T01:01:08;11.57;;;2.70;;
79616;SDS011;69097;52.132;5.422;2023-12-29T01:03:40;10.85;;;2.30;;
79616;SDS011;69097;52.132;5.422;2023-12-29T01:06:13;10.57;;;2.40;;
79616;SDS011;69097;52.132;5.422;2023-12-29T01:08:40;10.18;;;2.70;;
79616;SDS011;69097;52.132;5.422;2023-12-29T01:11:13;7.78;;;2.00;;
79616;SDS011;69097;52.132;5.422;2023-12-29T01:13:42;8.70;;;1.77;;
79616;SDS011;69097;52.132;5.422;2023-12-29T01:16:13;9.48;;;2.35;;
79616;SDS011;69097;52.132;5.422;2023-12-29T01:18:46;6.93;;;1.63;;
79616;SDS011;69097;52.132;5.422;2023-12-29T01:21:15;7.55;;;2.25;;
79616;SDS011;69097;52.132;5.422;2023-12-29T01:23:57;8.18;;;2.20;;
79616;SDS011;69097;52.132;5.422;2023-12-29T01:26:23;7.63;;;2.42;;
79616;SDS011;69097;52.132;5.422;2023-12-29T01:28:50;9.45;;;3.08;;
79616;SDS011;69097;52.132;5.422;2023-12-29T01:31:17;7.47;;;2.17;;
79616;SDS011;69097;52.132;5.422;2023-12-29T01:33:46;8.35;;;2.47;;
79616;SDS011;69097;52.132;5.422;2023-12-29T01:36:22;12.52;;;2.53;;
79616;SDS011;69097;52.132;5.422;2023-12-29T01:38:51;6.60;;;2.65;;
79616;SDS011;69097;52.132;5.422;2023-12-29T01:41:20;6.90;;;2.20;;
79616;SDS011;69097;52.132;5.422;2023-12-29T01:46:24;6.32;;;2.97;;
79616;SDS011;69097;52.132;5.422;2023-12-29T01:48:51;8.25;;;2.15;;
79616;SDS011;69097;52.132;5.422;2023-12-29T01:51:18;9.38;;;1.80;;
79616;SDS011;69097;52.132;5.422;2023-12-29T01:53:50;7.53;;;2.45;;
79616;SDS011;69097;52.132;5.422;2023-12-29T01:56:29;9.85;;;1.98;;
79616;SDS011;69097;52.132;5.422;2023-12-29T01:58:59;7.05;;;2.03;;
79616;SDS011;69097;52.132;5.422;2023-12-29T02:01:37;7.95;;;2.28;;
79616;SDS011;69097;52.132;5.422;2023-12-29T02:04:15;10.23;;;3.10;;
79616;SDS011;69097;52.132;5.422;2023-12-29T02:06:43;6.30;;;1.83;;
79616;SDS011;69097;52.132;5.422;2023-12-29T02:09:27;11.68;;;2.42;;
79616;SDS011;69097;52.132;5.422;2023-12-29T02:12:08;5.43;;;2.58;;
79616;SDS011;69097;52.132;5.422;2023-12-29T02:14:35;9.80;;;2.17;;
79616;SDS011;69097;52.132;5.422;2023-12-29T02:17:15;8.10;;;2.33;;
79616;SDS011;69097;52.132;5.422;2023-12-29T02:19:47;8.95;;;2.42;;
79616;SDS011;69097;52.132;5.422;2023-12-29T02:22:16;9.57;;;2.53;;
79616;SDS011;69097;52.132;5.422;2023-12-29T02:24:50;10.23;;;2.33;;
79616;SDS011;69097;52.132;5.422;2023-12-29T02:30:54;6.43;;;2.63;;
79616;SDS011;69097;52.132;5.422;2023-12-29T02:33:44;5.90;;;2.08;;
79616;SDS011;69097;52.132;5.422;2023-12-29T02:36:22;6.78;;;2.38;;
79616;SDS011;69097;52.132;5.422;2023-12-29T02:38:49;6.28;;;1.85;;
79616;SDS011;69097;52.132;5.422;2023-12-29T02:41:16;9.77;;;2.30;;
79616;SDS011;69097;52.132;5.422;2023-12-29T02:43:43;10.10;;;2.40;;
79616;SDS011;69097;52.132;5.422;2023-12-29T02:46:16;9.70;;;2.72;;
79616;SDS011;69097;52.132;5.422;2023-12-29T02:48:43;11.23;;;2.05;;
79616;SDS011;69097;52.132;5.422;2023-12-29T02:51:10;12.48;;;2.55;;
79616;SDS011;69097;52.132;5.422;2023-12-29T02:53:42;11.60;;;2.88;;
79616;SDS011;69097;52.132;5.422;2023-12-29T02:56:09;11.18;;;2.60;;
79616;SDS011;69097;52.132;5.422;2023-12-29T02:58:36;8.77;;;2.13;;
79616;SDS011;69097;52.132;5.422;2023-12-29T03:01:02;10.02;;;2.75;;
79616;SDS011;69097;52.132;5.422;2023-12-29T03:03:39;11.77;;;3.20;;
79616;SDS011;69097;52.132;5.422;2023-12-29T03:06:12;9.15;;;2.20;;
79616;SDS011;69097;52.132;5.422;2023-12-29T03:08:39;10.73;;;3.05;;
79616;SDS011;69097;52.132;5.422;2023-12-29T03:11:06;9.52;;;3.25;;
79616;SDS011;69097;52.132;5.422;2023-12-29T03:13:32;9.02;;;2.25;;
79616;SDS011;69097;52.132;5.422;2023-12-29T03:16:04;8.60;;;1.35;;
79616;SDS011;69097;52.132;5.422;2023-12-29T03:18:35;12.07;;;2.65;;
79616;SDS011;69097;52.132;5.422;2023-12-29T03:21:08;10.40;;;3.05;;
79616;SDS011;69097;52.132;5.422;2023-12-29T03:23:34;7.97;;;2.42;;
79616;SDS011;69097;52.132;5.422;2023-12-29T03:26:01;9.00;;;3.10;;
79616;SDS011;69097;52.132;5.422;2023-12-29T03:30:58;10.35;;;2.92;;
79616;SDS011;69097;52.132;5.422;2023-12-29T03:33:28;13.38;;;3.10;;
79616;SDS011;69097;52.132;5.422;2023-12-29T03:38:41;8.57;;;2.15;;
79616;SDS011;69097;52.132;5.422;2023-12-29T03:41:14;13.45;;;1.88;;
79616;SDS011;69097;52.132;5.422;2023-12-29T03:43:51;7.43;;;1.83;;
79616;SDS011;69097;52.132;5.422;2023-12-29T03:46:25;11.27;;;2.72;;
79616;SDS011;69097;52.132;5.422;2023-12-29T03:49:04;10.73;;;2.28;;
79616;SDS011;69097;52.132;5.422;2023-12-29T03:51:30;12.25;;;2.35;;
79616;SDS011;69097;52.132;5.422;2023-12-29T03:54:03;12.75;;;2.88;;
79616;SDS011;69097;52.132;5.422;2023-12-29T03:56:30;12.05;;;2.45;;
79616;SDS011;69097;52.132;5.422;2023-12-29T03:59:11;9.30;;;2.35;;
79616;SDS011;69097;52.132;5.422;2023-12-29T04:01:41;10.18;;;3.15;;
79616;SDS011;69097;52.132;5.422;2023-12-29T04:04:11;15.93;;;3.40;;
79616;SDS011;69097;52.132;5.422;2023-12-29T04:06:40;11.40;;;2.75;;
79616;SDS011;69097;52.132;5.422;2023-12-29T04:09:42;11.02;;;2.88;;
79616;SDS011;69097;52.132;5.422;2023-12-29T04:12:12;11.02;;;2.70;;
79616;SDS011;69097;52.132;5.422;2023-12-29T04:14:41;10.57;;;2.35;;
79616;SDS011;69097;52.132;5.422;2023-12-29T04:17:17;9.95;;;2.13;;
79616;SDS011;69097;52.132;5.422;2023-12-29T04:19:48;9.48;;;2.35;;
79616;SDS011;69097;52.132;5.422;2023-12-29T04:22:18;9.40;;;2.70;;
79616;SDS011;69097;52.132;5.422;2023-12-29T04:24:44;8.50;;;2.10;;
79616;SDS011;69097;52.132;5.422;2023-12-29T04:27:17;12.20;;;2.67;;
79616;SDS011;69097;52.132;5.422;2023-12-29T04:29:44;11.55;;;2.63;;
79616;SDS011;69097;52.132;5.422;2023-12-29T04:34:56;13.85;;;2.50;;
79616;SDS011;69097;52.132;5.422;2023-12-29T04:37:23;10.68;;;1.88;;
79616;SDS011;69097;52.132;5.422;2023-12-29T04:39:53;10.77;;;2.88;;
79616;SDS011;69097;52.132;5.422;2023-12-29T04:42:20;10.68;;;3.10;;
79616;SDS011;69097;52.132;5.422;2023-12-29T04:44:50;9.80;;;2.38;;
79616;SDS011;69097;52.132;5.422;2023-12-29T04:47:25;17.92;;;3.08;;
79616;SDS011;69097;52.132;5.422;2023-12-29T04:49:51;9.65;;;2.22;;
79616;SDS011;69097;52.132;5.422;2023-12-29T04:52:22;13.02;;;2.42;;
79616;SDS011;69097;52.132;5.422;2023-12-29T04:54:48;8.00;;;3.47;;
79616;SDS011;69097;52.132;5.422;2023-12-29T04:57:19;13.45;;;3.10;;
79616;SDS011;69097;52.132;5.422;2023-12-29T04:59:46;11.63;;;1.98;;
79616;SDS011;69097;52.132;5.422;2023-12-29T05:02:19;11.40;;;2.45;;
79616;SDS011;69097;52.132;5.422;2023-12-29T05:04:48;9.25;;;2.63;;
79616;SDS011;69097;52.132;5.422;2023-12-29T05:07:33;11.70;;;2.85;;
79616;SDS011;69097;52.132;5.422;2023-12-29T05:10:00;12.68;;;3.40;;
79616;SDS011;69097;52.132;5.422;2023-12-29T05:12:32;13.43;;;3.25;;
79616;SDS011;69097;52.132;5.422;2023-12-29T05:15:01;17.50;;;2.95;;
79616;SDS011;69097;52.132;5.422;2023-12-29T05:17:28;15.18;;;2.95;;
79616;SDS011;69097;52.132;5.422;2023-12-29T05:19:55;11.02;;;2.53;;
79616;SDS011;69097;52.132;5.422;2023-12-29T05:22:21;10.50;;;2.78;;
79616;SDS011;69097;52.132;5.422;2023-12-29T05:24:51;11.93;;;1.65;;
79616;SDS011;69097;52.132;5.422;2023-12-29T05:27:17;15.95;;;3.22;;
79616;SDS011;69097;52.132;5.422;2023-12-29T05:29:50;13.02;;;2.38;;
79616;SDS011;69097;52.132;5.422;2023-12-29T05:32:16;13.20;;;3.17;;
79616;SDS011;69097;52.132;5.422;2023-12-29T05:34:46;10.40;;;2.10;;
79616;SDS011;69097;52.132;5.422;2023-12-29T05:37:13;13.23;;;3.22;;
79616;SDS011;69097;52.132;5.422;2023-12-29T05:39:54;11.55;;;2.47;;
79616;SDS011;69097;52.132;5.422;2023-12-29T05:42:30;15.98;;;3.10;;
79616;SDS011;69097;52.132;5.422;2023-12-29T05:44:57;12.23;;;2.72;;
79616;SDS011;69097;52.132;5.422;2023-12-29T05:47:24;10.98;;;2.88;;
79616;SDS011;69097;52.132;5.422;2023-12-29T05:49:51;10.88;;;2.53;;
79616;SDS011;69097;52.132;5.422;2023-12-29T05:52:26;11.52;;;3.08;;
79616;SDS011;69097;52.132;5.422;2023-12-29T05:54:58;11.38;;;2.38;;
79616;SDS011;69097;52.132;5.422;2023-12-29T05:57:28;12.07;;;1.42;;
79616;SDS011;69097;52.132;5.422;2023-12-29T05:59:55;12.35;;;3.33;;
79616;SDS011;69097;52.132;5.422;2023-12-29T06:02:31;12.75;;;3.03;;
79616;SDS011;69097;52.132;5.422;2023-12-29T06:04:58;14.43;;;2.90;;
79616;SDS011;69097;52.132;5.422;2023-12-29T06:07:43;12.73;;;2.17;;
79616;SDS011;69097;52.132;5.422;2023-12-29T06:10:11;9.20;;;2.25;;
79616;SDS011;69097;52.132;5.422;2023-12-29T06:15:05;9.38;;;2.60;;
79616;SDS011;69097;52.132;5.422;2023-12-29T06:17:32;16.67;;;3.20;;
79616;SDS011;69097;52.132;5.422;2023-12-29T06:19:59;13.05;;;2.92;;
79616;SDS011;69097;52.132;5.422;2023-12-29T06:22:26;12.07;;;2.30;;
79616;SDS011;69097;52.132;5.422;2023-12-29T06:24:55;8.60;;;3.03;;
79616;SDS011;69097;52.132;5.422;2023-12-29T06:27:22;12.65;;;2.50;;
79616;SDS011;69097;52.132;5.422;2023-12-29T06:29:49;10.63;;;3.65;;
79616;SDS011;69097;52.132;5.422;2023-12-29T06:32:16;13.73;;;3.10;;
79616;SDS011;69097;52.132;5.422;2023-12-29T06:34:45;10.23;;;2.55;;
79616;SDS011;69097;52.132;5.422;2023-12-29T06:37:12;11.88;;;1.40;;
79616;SDS011;69097;52.132;5.422;2023-12-29T06:39:39;7.60;;;2.60;;
79616;SDS011;69097;52.132;5.422;2023-12-29T06:42:06;10.85;;;2.20;;
79616;SDS011;69097;52.132;5.422;2023-12-29T06:44:34;10.18;;;2.72;;
79616;SDS011;69097;52.132;5.422;2023-12-29T06:47:03;10.30;;;2.25;;
79616;SDS011;69097;52.132;5.422;2023-12-29T06:49:36;13.00;;;2.92;;
79616;SDS011;69097;52.132;5.422;2023-12-29T06:52:09;7.13;;;1.35;;
79616;SDS011;69097;52.132;5.422;2023-12-29T06:54:38;10.57;;;2.50;;
79616;SDS011;69097;52.132;5.422;2023-12-29T06:57:06;13.27;;;2.55;;
79616;SDS011;69097;52.132;5.422;2023-12-29T06:59:35;12.25;;;1.40;;
79616;SDS011;69097;52.132;5.422;2023-12-29T07:02:02;9.13;;;2.42;;
79616;SDS011;69097;52.132;5.422;2023-12-29T07:04:34;8.50;;;2.45;;
79616;SDS011;69097;52.132;5.422;2023-12-29T07:07:01;8.43;;;2.15;;
79616;SDS011;69097;52.132;5.422;2023-12-29T07:09:31;13.88;;;3.08;;
79616;SDS011;69097;52.132;5.422;2023-12-29T07:12:05;8.70;;;2.25;;
79616;SDS011;69097;52.132;5.422;2023-12-29T07:14:32;6.57;;;2.92;;
79616;SDS011;69097;52.132;5.422;2023-12-29T07:17:02;5.78;;;2.15;;
79616;SDS011;69097;52.132;5.422;2023-12-29T07:19:35;5.60;;;2.17;;
79616;SDS011;69097;52.132;5.422;2023-12-29T07:22:05;10.30;;;2.47;;
79616;SDS011;69097;52.132;5.422;2023-12-29T07:24:35;8.85;;;1.95;;
79616;SDS011;69097;52.132;5.422;2023-12-29T07:27:03;7.68;;;2.22;;
79616;SDS011;69097;52.132;5.422;2023-12-29T07:32:00;8.88;;;2.10;;
79616;SDS011;69097;52.132;5.422;2023-12-29T07:34:27;6.93;;;1.45;;
79616;SDS011;69097;52.132;5.422;2023-12-29T07:36:54;8.43;;;2.22;;
79616;SDS011;69097;52.132;5.422;2023-12-29T07:39:24;10.73;;;2.22;;
79616;SDS011;69097;52.132;5.422;2023-12-29T07:41:56;5.13;;;2.10;;
79616;SDS011;69097;52.132;5.422;2023-12-29T07:44:29;8.48;;;1.52;;
79616;SDS011;69097;52.132;5.422;2023-12-29T07:46:56;8.40;;;2.40;;
79616;SDS011;69097;52.132;5.422;2023-12-29T07:52:29;7.15;;;2.38;;
79616;SDS011;69097;52.132;5.422;2023-12-29T07:54:56;6.55;;;1.40;;
79616;SDS011;69097;52.132;5.422;2023-12-29T07:57:44;9.48;;;2.28;;
79616;SDS011;69097;52.132;5.422;2023-12-29T08:00:14;10.35;;;2.45;;
79616;SDS011;69097;52.132;5.422;2023-12-29T08:02:43;7.05;;;2.35;;
79616;SDS011;69097;52.132;5.422;2023-12-29T08:05:11;6.88;;;2.55;;
79616;SDS011;69097;52.132;5.422;2023-12-29T08:07:38;5.05;;;2.65;;
79616;SDS011;69097;52.132;5.422;2023-12-29T08:10:05;8.63;;;2.33;;
79616;SDS011;69097;52.132;5.422;2023-12-29T08:12:51;9.77;;;2.30;;
79616;SDS011;69097;52.132;5.422;2023-12-29T08:15:24;9.60;;;3.58;;
79616;SDS011;69097;52.132;5.422;2023-12-29T08:17:52;8.88;;;3.20;;
79616;SDS011;69097;52.132;5.422;2023-12-29T08:20:21;7.07;;;2.35;;
79616;SDS011;69097;52.132;5.422;2023-12-29T08:22:59;7.82;;;1.58;;
79616;SDS011;69097;52.132;5.422;2023-12-29T08:25:29;8.30;;;2.30;;
79616;SDS011;69097;52.132;5.422;2023-12-29T08:28:31;5.75;;;2.42;;
79616;SDS011;69097;52.132;5.422;2023-12-29T08:30:58;8.02;;;2.47;;
79616;SDS011;69097;52.132;5.422;2023-12-29T08:33:29;7.72;;;2.10;;
79616;SDS011;69097;52.132;5.422;2023-12-29T08:35:58;6.70;;;2.20;;
79616;SDS011;69097;52.132;5.422;2023-12-29T08:38:27;6.45;;;2.63;;
79616;SDS011;69097;52.132;5.422;2023-12-29T08:41:29;7.25;;;2.92;;
79616;SDS011;69097;52.132;5.422;2023-12-29T08:44:07;5.80;;;2.28;;
79616;SDS011;69097;52.132;5.422;2023-12-29T08:46:43;6.05;;;2.53;;
79616;SDS011;69097;52.132;5.422;2023-12-29T08:49:15;8.07;;;2.33;;
79616;SDS011;69097;52.132;5.422;2023-12-29T08:51:44;9.43;;;2.47;;
79616;SDS011;69097;52.132;5.422;2023-12-29T08:54:14;7.80;;;2.10;;
79616;SDS011;69097;52.132;5.422;2023-12-29T08:56:40;5.40;;;2.03;;
79616;SDS011;69097;52.132;5.422;2023-12-29T08:59:07;7.45;;;2.17;;
79616;SDS011;69097;52.132;5.422;2023-12-29T09:01:33;6.18;;;2.25;;
79616;SDS011;69097;52.132;5.422;2023-12-29T09:04:03;6.47;;;2.30;;
79616;SDS011;69097;52.132;5.422;2023-12-29T09:06:33;6.15;;;3.13;;
79616;SDS011;69097;52.132;5.422;2023-12-29T09:12:06;6.38;;;1.98;;
79616;SDS011;69097;52.132;5.422;2023-12-29T09:14:33;5.88;;;2.25;;
79616;SDS011;69097;52.132;5.422;2023-12-29T09:17:00;5.65;;;1.90;;
79616;SDS011;69097;52.132;5.422;2023-12-29T09:19:27;5.07;;;2.20;;
79616;SDS011;69097;52.132;5.422;2023-12-29T09:22:05;7.22;;;2.25;;
79616;SDS011;69097;52.132;5.422;2023-12-29T09:24:31;7.53;;;2.35;;
79616;SDS011;69097;52.132;5.422;2023-12-29T09:26:58;8.63;;;1.38;;
79616;SDS011;69097;52.132;5.422;2023-12-29T09:29:24;8.07;;;2.30;;
79616;SDS011;69097;52.132;5.422;2023-12-29T09:31:51;6.15;;;2.38;;
79616;SDS011;69097;52.132;5.422;2023-12-29T09:34:21;7.00;;;1.88;;
79616;SDS011;69097;52.132;5.422;2023-12-29T09:36:50;7.55;;;2.00;;
79616;SDS011;69097;52.132;5.422;2023-12-29T09:39:17;5.95;;;1.90;;
79616;SDS011;69097;52.132;5.422;2023-12-29T09:41:53;7.85;;;2.80;;
79616;SDS011;69097;52.132;5.422;2023-12-29T09:44:24;6.70;;;2.00;;
79616;SDS011;69097;52.132;5.422;2023-12-29T09:46:53;8.68;;;2.35;;
79616;SDS011;69097;52.132;5.422;2023-12-29T09:49:20;7.38;;;2.15;;
79616;SDS011;69097;52.132;5.422;2023-12-29T09:51:47;7.45;;;2.38;;
79616;SDS011;69097;52.132;5.422;2023-12-29T09:54:20;5.93;;;2.05;;
79616;SDS011;69097;52.132;5.422;2023-12-29T09:56:49;6.32;;;2.15;;
79616;SDS011;69097;52.132;5.422;2023-12-29T09:59:16;9.77;;;2.22;;
79616;SDS011;69097;52.132;5.422;2023-12-29T10:01:48;6.05;;;0.95;;
79616;SDS011;69097;52.132;5.422;2023-12-29T10:04:18;7.72;;;1.95;;
79616;SDS011;69097;52.132;5.422;2023-12-29T10:06:48;7.97;;;1.80;;
79616;SDS011;69097;52.132;5.422;2023-12-29T10:09:19;10.30;;;2.17;;
79616;SDS011;69097;52.132;5.422;2023-12-29T10:11:47;10.63;;;2.38;;
79616;SDS011;69097;52.132;5.422;2023-12-29T10:20:33;5.75;;;2.58;;
79616;SDS011;69097;52.132;5.422;2023-12-29T10:23:10;4.45;;;2.22;;
79616;SDS011;69097;52.132;5.422;2023-12-29T10:26:03;6.40;;;1.80;;
79616;SDS011;69097;52.132;5.422;2023-12-29T10:31:13;7.45;;;1.92;;
79616;SDS011;69097;52.132;5.422;2023-12-29T10:33:44;10.25;;;2.38;;
79616;SDS011;69097;52.132;5.422;2023-12-29T10:36:42;5.78;;;2.05;;
79616;SDS011;69097;52.132;5.422;2023-12-29T10:39:15;6.53;;;2.40;;
79616;SDS011;69097;52.132;5.422;2023-12-29T10:41:48;4.82;;;1.75;;
79616;SDS011;69097;52.132;5.422;2023-12-29T10:51:09;7.63;;;2.40;;
79616;SDS011;69097;52.132;5.422;2023-12-29T10:53:43;7.65;;;2.33;;
79616;SDS011;69097;52.132;5.422;2023-12-29T10:57:00;6.35;;;2.22;;
79616;SDS011;69097;52.132;5.422;2023-12-29T10:59:39;5.68;;;1.55;;
79616;SDS011;69097;52.132;5.422;2023-12-29T11:29:41;6.28;;;2.10;;
79616;SDS011;69097;52.132;5.422;2023-12-29T11:42:07;8.07;;;2.25;;
79616;SDS011;69097;52.132;5.422;2023-12-29T13:30:22;12.02;;;2.58;;
79616;SDS011;69097;52.132;5.422;2023-12-29T13:33:16;12.00;;;2.55;;
79616;SDS011;69097;52.132;5.422;2023-12-29T13:36:17;10.40;;;2.20;;
79616;SDS011;69097;52.132;5.422;2023-12-29T13:39:44;21.60;;;3.83;;
79616;SDS011;69097;52.132;5.422;2023-12-29T14:00:35;9.77;;;2.00;;
79616;SDS011;69097;52.132;5.422;2023-12-29T14:03:15;13.60;;;1.90;;
79616;SDS011;69097;52.132;5.422;2023-12-29T14:09:57;12.27;;;2.72;;
79616;SDS011;69097;52.132;5.422;2023-12-29T14:15:56;7.82;;;2.05;;
79616;SDS011;69097;52.132;5.422;2023-12-29T14:28:20;9.45;;;2.20;;
79616;SDS011;69097;52.132;5.422;2023-12-29T14:31:01;10.95;;;2.90;;
79616;SDS011;69097;52.132;5.422;2023-12-29T14:36:56;12.20;;;2.10;;
79616;SDS011;69097;52.132;5.422;2023-12-29T14:39:41;11.43;;;2.03;;
79616;SDS011;69097;52.132;5.422;2023-12-29T14:42:57;12.98;;;2.22;;
79616;SDS011;69097;52.132;5.422;2023-12-29T14:45:24;14.02;;;1.55;;
79616;SDS011;69097;52.132;5.422;2023-12-29T15:23:09;16.75;;;3.90;;
79616;SDS011;69097;52.132;5.422;2023-12-29T15:25:36;11.98;;;2.55;;
79616;SDS011;69097;52.132;5.422;2023-12-29T15:28:16;10.15;;;2.50;;
79616;SDS011;69097;52.132;5.422;2023-12-29T15:30:45;8.75;;;2.22;;
79616;SDS011;69097;52.132;5.422;2023-12-29T15:33:13;9.65;;;2.55;;
79616;SDS011;69097;52.132;5.422;2023-12-29T15:35:40;8.48;;;2.15;;
79616;SDS011;69097;52.132;5.422;2023-12-29T15:38:07;11.00;;;2.95;;
79616;SDS011;69097;52.132;5.422;2023-12-29T15:40:37;9.07;;;1.77;;
79616;SDS011;69097;52.132;5.422;2023-12-29T15:43:05;10.93;;;2.47;;
79616;SDS011;69097;52.132;5.422;2023-12-29T15:45:34;6.80;;;1.10;;
79616;SDS011;69097;52.132;5.422;2023-12-29T15:48:01;6.90;;;2.17;;
79616;SDS011;69097;52.132;5.422;2023-12-29T15:50:28;7.88;;;2.45;;
79616;SDS011;69097;52.132;5.422;2023-12-29T15:52:55;7.55;;;1.90;;
79616;SDS011;69097;52.132;5.422;2023-12-29T15:55:21;5.43;;;1.08;;
79616;SDS011;69097;52.132;5.422;2023-12-29T15:57:48;6.20;;;1.70;;
79616;SDS011;69097;52.132;5.422;2023-12-29T16:00:15;10.65;;;2.28;;
79616;SDS011;69097;52.132;5.422;2023-12-29T16:02:42;9.55;;;2.28;;
79616;SDS011;69097;52.132;5.422;2023-12-29T16:05:16;9.45;;;2.75;;
79616;SDS011;69097;52.132;5.422;2023-12-29T16:07:43;6.32;;;2.83;;
79616;SDS011;69097;52.132;5.422;2023-12-29T16:10:12;9.35;;;2.80;;
79616;SDS011;69097;52.132;5.422;2023-12-29T16:12:52;5.57;;;2.17;;
79616;SDS011;69097;52.132;5.422;2023-12-29T16:15:19;9.20;;;3.92;;
79616;SDS011;69097;52.132;5.422;2023-12-29T16:17:45;10.98;;;3.50;;
79616;SDS011;69097;52.132;5.422;2023-12-29T16:20:21;8.18;;;3.22;;
79616;SDS011;69097;52.132;5.422;2023-12-29T16:22:48;8.57;;;2.47;;
79616;SDS011;69097;52.132;5.422;2023-12-29T16:25:15;8.10;;;3.33;;
79616;SDS011;69097;52.132;5.422;2023-12-29T16:27:42;9.38;;;3.17;;
79616;SDS011;69097;52.132;5.422;2023-12-29T16:30:20;9.50;;;3.45;;
79616;SDS011;69097;52.132;5.422;2023-12-29T16:32:47;5.75;;;2.33;;
79616;SDS011;69097;52.132;5.422;2023-12-29T16:35:29;7.45;;;2.60;;
79616;SDS011;69097;52.132;5.422;2023-12-29T16:38:16;7.57;;;2.75;;
79616;SDS011;69097;52.132;5.422;2023-12-29T16:40:44;8.52;;;3.05;;
79616;SDS011;69097;52.132;5.422;2023-12-29T16:43:15;8.13;;;3.22;;
79616;SDS011;69097;52.132;5.422;2023-12-29T16:45:44;6.95;;;2.63;;
79616;SDS011;69097;52.132;5.422;2023-12-29T16:48:13;8.35;;;2.38;;
79616;SDS011;69097;52.132;5.422;2023-12-29T16:50:41;6.47;;;2.22;;
79616;SDS011;69097;52.132;5.422;2023-12-29T16:53:07;6.45;;;2.10;;
79616;SDS011;69097;52.132;5.422;2023-12-29T16:55:34;6.50;;;2.05;;
79616;SDS011;69097;52.132;5.422;2023-12-29T16:58:00;5.40;;;1.73;;
79616;SDS011;69097;52.132;5.422;2023-12-29T17:00:29;4.85;;;1.63;;
79616;SDS011;69097;52.132;5.422;2023-12-29T17:02:55;4.95;;;1.42;;
79616;SDS011;69097;52.132;5.422;2023-12-29T17:05:22;4.40;;;1.70;;
79616;SDS011;69097;52.132;5.422;2023-12-29T17:07:48;5.22;;;2.28;;
79616;SDS011;69097;52.132;5.422;2023-12-29T17:10:15;2.70;;;0.88;;
79616;SDS011;69097;52.132;5.422;2023-12-29T17:12:41;5.55;;;1.23;;
79616;SDS011;69097;52.132;5.422;2023-12-29T17:15:08;3.45;;;1.42;;
79616;SDS011;69097;52.132;5.422;2023-12-29T17:17:35;6.03;;;1.52;;
79616;SDS011;69097;52.132;5.422;2023-12-29T17:20:01;5.38;;;1.50;;
79616;SDS011;69097;52.132;5.422;2023-12-29T17:22:28;7.43;;;1.77;;
79616;SDS011;69097;52.132;5.422;2023-12-29T17:24:54;4.07;;;2.28;;
79616;SDS011;69097;52.132;5.422;2023-12-29T17:27:21;4.70;;;1.65;;
79616;SDS011;69097;52.132;5.422;2023-12-29T17:29:47;4.82;;;1.80;;
79616;SDS011;69097;52.132;5.422;2023-12-29T17:32:15;7.45;;;1.88;;
79616;SDS011;69097;52.132;5.422;2023-12-29T17:34:42;6.97;;;2.50;;
79616;SDS011;69097;52.132;5.422;2023-12-29T17:37:09;8.10;;;2.65;;
79616;SDS011;69097;52.132;5.422;2023-12-29T17:39:35;6.75;;;2.58;;
79616;SDS011;69097;52.132;5.422;2023-12-29T17:42:04;4.05;;;2.35;;
79616;SDS011;69097;52.132;5.422;2023-12-29T17:44:32;5.13;;;1.80;;
79616;SDS011;69097;52.132;5.422;2023-12-29T17:46:58;4.53;;;2.10;;
79616;SDS011;69097;52.132;5.422;2023-12-29T17:49:25;5.13;;;2.78;;
79616;SDS011;69097;52.132;5.422;2023-12-29T17:51:54;7.38;;;3.38;;
79616;SDS011;69097;52.132;5.422;2023-12-29T17:54:22;10.05;;;5.25;;
79616;SDS011;69097;52.132;5.422;2023-12-29T17:56:49;11.00;;;5.15;;
79616;SDS011;69097;52.132;5.422;2023-12-29T17:59:16;9.82;;;5.45;;
79616;SDS011;69097;52.132;5.422;2023-12-29T18:01:43;9.27;;;4.90;;
79616;SDS011;69097;52.132;5.422;2023-12-29T18:04:09;5.35;;;2.97;;
79616;SDS011;69097;52.132;5.422;2023-12-29T18:06:47;7.32;;;3.97;;
79616;SDS011;69097;52.132;5.422;2023-12-29T18:09:25;7.30;;;2.70;;
79616;SDS011;69097;52.132;5.422;2023-12-29T18:11:53;7.28;;;1.88;;
79616;SDS011;69097;52.132;5.422;2023-12-29T18:14:19;5.10;;;2.15;;
79616;SDS011;69097;52.132;5.422;2023-12-29T18:16:49;6.75;;;2.30;;
79616;SDS011;69097;52.132;5.422;2023-12-29T18:19:16;7.60;;;3.65;;
79616;SDS011;69097;52.132;5.422;2023-12-29T18:21:49;7.57;;;4.82;;
79616;SDS011;69097;52.132;5.422;2023-12-29T18:24:16;10.07;;;5.05;;
79616;SDS011;69097;52.132;5.422;2023-12-29T18:26:48;9.52;;;6.00;;
79616;SDS011;69097;52.132;5.422;2023-12-29T18:29:15;8.38;;;4.95;;
79616;SDS011;69097;52.132;5.422;2023-12-29T18:31:41;10.27;;;3.45;;
79616;SDS011;69097;52.132;5.422;2023-12-29T18:34:09;7.38;;;3.42;;
79616;SDS011;69097;52.132;5.422;2023-12-29T18:36:36;12.68;;;5.00;;
79616;SDS011;69097;52.132;5.422;2023-12-29T18:39:03;8.85;;;4.13;;
79616;SDS011;69097;52.132;5.422;2023-12-29T18:41:29;9.02;;;4.25;;
79616;SDS011;69097;52.132;5.422;2023-12-29T18:43:56;15.63;;;7.95;;
79616;SDS011;69097;52.132;5.422;2023-12-29T18:46:23;13.57;;;8.98;;
79616;SDS011;69097;52.132;5.422;2023-12-29T18:48:51;14.82;;;7.00;;
79616;SDS011;69097;52.132;5.422;2023-12-29T18:51:18;18.45;;;8.23;;
79616;SDS011;69097;52.132;5.422;2023-12-29T18:53:45;16.70;;;7.38;;
79616;SDS011;69097;52.132;5.422;2023-12-29T18:56:12;13.35;;;6.15;;
79616;SDS011;69097;52.132;5.422;2023-12-29T18:58:39;11.82;;;5.95;;
79616;SDS011;69097;52.132;5.422;2023-12-29T19:01:05;15.00;;;7.18;;
79616;SDS011;69097;52.132;5.422;2023-12-29T19:03:32;14.85;;;5.95;;
79616;SDS011;69097;52.132;5.422;2023-12-29T19:06:10;15.82;;;7.47;;
79616;SDS011;69097;52.132;5.422;2023-12-29T19:08:37;16.52;;;8.15;;
79616;SDS011;69097;52.132;5.422;2023-12-29T19:11:03;17.48;;;9.45;;
79616;SDS011;69097;52.132;5.422;2023-12-29T19:13:30;20.20;;;10.85;;
79616;SDS011;69097;52.132;5.422;2023-12-29T19:15:56;19.40;;;9.48;;
79616;SDS011;69097;52.132;5.422;2023-12-29T19:18:26;13.35;;;5.40;;
79616;SDS011;69097;52.132;5.422;2023-12-29T19:20:53;8.90;;;2.88;;
79616;SDS011;69097;52.132;5.422;2023-12-29T19:23:19;8.13;;;3.90;;
79616;SDS011;69097;52.132;5.422;2023-12-29T19:25:46;11.07;;;4.57;;